Time;durP1;ratioP1;P1;durP2;ratioP2;P2;SDS_P1;SDS_P2;PMS_P1;PMS_P2;Temp;Humidity;BMP_temperature;BMP_pressure;BME280_temperature;BME280_humidity;BME280_pressure;Samples;Min_cycle;Max_cycle;Signal;HPM_P1;HPM_P2
2023/11/15 00:02:16;;;;;;;;;;;;;;;13.83;100.00;99246.09;6249573;22;19912;-88
2023/11/15 00:04:41;;;;;;;;;;;;;;;12.06;100.00;99244.44;6276285;22;20285;-89
2023/11/15 00:07:06;;;;;;;;;;;;;;;10.31;100.00;99238.75;6275884;22;19953;-87
2023/11/15 00:09:32;;;;;;;;;;;;;;;9.42;100.00;99243.94;6249244;22;19915;-88
2023/11/15 00:11:57;;;;;;;;;;;;;;;8.84;100.00;99250.94;6274236;22;19911;-87
2023/11/15 00:14:23;;;;;;;;;;;;;;;8.50;100.00;99255.06;6275690;22;19919;-89
2023/11/15 00:16:48;;;;;;;;;;;;;;;8.21;100.00;99264.16;6250643;22;19907;-87
2023/11/15 00:19:14;;;;;;;;;;;;;;;8.14;100.00;99265.34;6256440;22;19957;-87
2023/11/15 00:21:39;;;;;;;;;;;;;;;7.84;100.00;99275.34;6244505;23;19998;-86
2023/11/15 00:24:05;;;;;;;;;;;;;;;7.77;100.00;99270.31;6217575;23;19919;-87
2023/11/15 00:26:30;;;;;;;;;;;;;;;7.51;100.00;99273.09;6243504;23;19912;-87
2023/11/15 06:22:11;;;;;;;;;;;;;;;6.30;100.00;99629.13;6211718;23;20306;-88
2023/11/15 06:24:40;;;;;;;;;;;;;;;6.36;100.00;99626.34;6190244;23;19916;-88
2023/11/15 06:27:06;;;;;;;;;;;;;;;6.43;100.00;99637.53;6216516;23;19912;-87
2023/11/15 06:29:32;;;;;;;;;;;;;;;6.28;100.00;99633.59;6216279;23;20331;-87
2023/11/15 06:31:58;;;;;;;;;;;;;;;6.35;100.00;99633.38;6216182;23;19912;-86
2023/11/15 06:34:23;;;;;;;;;;;;;;;6.40;100.00;99630.63;6189759;23;20275;-85
2023/11/15 06:36:48;;;;;;;;;;;;;;;6.38;100.00;99639.44;6214829;23;19934;-86
2023/11/15 06:39:14;;;;;;;;;;;;;;;6.33;100.00;99637.84;6216317;23;19912;-88
2023/11/15 06:41:39;;;;;;;;;;;;;;;6.43;100.00;99645.44;6215979;23;19912;-87
2023/11/15 06:44:08;;;;;;;;;;;;;;;6.45;100.00;99652.41;6164590;23;20066;-90
2023/11/15 06:46:38;;;;;;;;;;;;;;;6.36;100.00;99657.91;6216090;23;19916;-88
2023/11/15 06:49:04;;;;;;;;;;;;;;;6.51;100.00;99660.13;6216024;23;20336;-88
2023/11/15 06:51:29;;;;;;;;;;;;;;;6.40;100.00;99666.59;6187853;23;19912;-88
2023/11/15 06:53:55;;;;;;;;;;;;;;;6.45;100.00;99670.84;6215947;23;19912;-82
2023/11/15 06:56:20;;;;;;;;;;;;;;;6.46;100.00;99669.94;6215928;23;19918;-84
2023/11/15 06:58:45;;;;;;;;;;;;;;;6.31;100.00;99671.19;6216056;23;19923;-85
2023/11/15 07:01:11;;;;;;;;;;;;;;;6.36;100.00;99678.97;6216173;23;19958;-85
2023/11/15 07:03:37;;;;;;;;;;;;;;;6.30;100.00;99682.66;6216247;23;19916;-85
2023/11/15 07:06:03;;;;;;;;;;;;;;;6.37;100.00;99675.44;6214341;23;19919;-84
2023/11/15 07:08:29;;;;;;;;;;;;;;;6.28;100.00;99679.19;6215790;23;19912;-89
2023/11/15 07:10:55;;;;;;;;;;;;;;;6.39;100.00;99684.16;6215801;23;20018;-90
2023/11/15 07:13:20;;;;;;;;;;;;;;;6.22;100.00;99689.00;6215923;23;20347;-85
2023/11/15 07:15:46;;;;;;;;;;;;;;;6.36;100.00;99700.03;6215872;23;19924;-89
2023/11/15 07:18:12;;;;;;;;;;;;;;;6.34;100.00;99702.69;6215757;23;20274;-88
2023/11/15 07:20:41;;;;;;;;;;;;;;;6.21;100.00;99709.19;6202123;23;19911;-88
2023/11/15 07:23:06;;;;;;;;;;;;;;;6.20;100.00;99711.88;6216058;23;20343;-87
2023/11/15 07:25:32;;;;;;;;;;;;;;;6.33;100.00;99711.50;6216516;23;19958;-91
2023/11/15 07:27:58;;;;;;;;;;;;;;;6.30;100.00;99708.97;6189671;23;20324;-89
2023/11/15 07:30:24;;;;;;;;;;;;;;;6.31;100.00;99713.31;6189295;23;19918;-85
2023/11/15 07:32:49;;;;;;;;;;;;;;;6.33;100.00;99716.78;6216014;23;19916;-89
2023/11/15 07:35:15;;;;;;;;;;;;;;;6.28;100.00;99717.78;6214086;23;20291;-92
2023/11/15 07:37:41;;;;;;;;;;;;;;;6.30;100.00;99713.34;6188955;23;19912;-91
2023/11/15 07:40:12;;;;;;;;;;;;;;;6.27;100.00;99716.94;6215417;23;19916;-90
2023/11/15 07:42:37;;;;;;;;;;;;;;;6.26;100.00;99725.72;6215484;23;19938;-89
2023/11/15 07:45:03;;;;;;;;;;;;;;;6.22;100.00;99725.84;6215805;23;20352;-92
2023/11/15 07:47:29;;;;;;;;;;;;;;;6.29;100.00;99727.44;6215481;23;19915;-91
2023/11/15 07:49:55;;;;;;;;;;;;;;;6.29;100.00;99733.53;6213619;23;19915;-91
2023/11/15 07:52:24;;;;;;;;;;;;;;;6.33;100.00;99727.31;6215275;23;20658;-92
2023/11/15 07:54:50;;;;;;;;;;;;;;;6.38;100.00;99732.41;6215322;23;19919;-92
2023/11/15 07:57:15;;;;;;;;;;;;;;;6.38;100.00;99729.78;6216782;23;19912;-91
2023/11/15 07:59:43;;;;;;;;;;;;;;;6.35;100.00;99740.41;6216019;23;19958;-95
2023/11/15 08:02:08;;;;;;;;;;;;;;;6.39;100.00;99731.53;6188839;23;19916;-90
2023/11/15 08:04:34;;;;;;;;;;;;;;;6.45;100.00;99741.91;6215175;23;19975;-89
2023/11/15 08:06:59;;;;;;;;;;;;;;;6.47;100.00;99747.13;6214521;23;19915;-91
2023/11/15 08:09:25;;;;;;;;;;;;;;;6.49;100.00;99753.19;6215706;23;20027;-90
2023/11/15 08:11:53;;;;;;;;;;;;;;;6.47;100.00;99752.38;6215720;23;20228;-88
2023/11/15 08:14:19;;;;;;;;;;;;;;;6.40;100.00;99750.81;6215417;23;19935;-90
2023/11/15 09:01:41;;;;;;;;;;;;;;;6.32;100.00;99794.00;6275080;22;20372;-92
2023/11/15 09:04:07;;;;;;;;;;;;;;;6.34;100.00;99797.44;6274983;22;19919;-88
2023/11/15 09:06:32;;;;;;;;;;;;;;;6.22;100.00;99797.75;6275967;22;20374;-96
2023/11/15 09:08:57;;;;;;;;;;;;;;;6.23;100.00;99804.75;6275876;22;20318;-88
2023/11/15 09:11:23;;;;;;;;;;;;;;;6.25;100.00;99802.94;6275351;22;19915;-91
2023/11/15 09:13:48;;;;;;;;;;;;;;;6.35;100.00;99798.28;6273466;22;19912;-90
2023/11/15 09:16:14;;;;;;;;;;;;;;;6.27;100.00;99802.91;6275816;22;20366;-91
2023/11/15 09:18:42;;;;;;;;;;;;;;;6.36;100.00;99811.41;6276827;22;19926;-87
2023/11/15 09:21:07;;;;;;;;;;;;;;;6.41;100.00;99813.09;6247813;22;19957;-91
2023/11/15 09:23:41;;;;;;;;;;;;;;;6.38;100.00;99821.06;6275947;22;19912;-90
2023/11/15 09:26:08;;;;;;;;;;;;;;;6.33;100.00;99816.78;6275816;22;20374;-92
2023/11/15 09:28:34;;;;;;;;;;;;;;;6.38;100.00;99821.91;6247297;22;20053;-89
2023/11/15 09:31:00;;;;;;;;;;;;;;;6.45;100.00;99820.88;6248356;22;20331;-92
2023/11/15 09:33:26;;;;;;;;;;;;;;;6.40;100.00;99822.75;6274583;22;19915;-81
2023/11/15 09:35:52;;;;;;;;;;;;;;;6.50;100.00;99831.28;6276177;22;19911;-87
2023/11/15 09:38:19;;;;;;;;;;;;;;;8.67;100.00;99832.75;6276282;22;19921;-90
2023/11/15 09:40:48;;;;;;;;;;;;;;;10.40;100.00;99836.03;6269464;22;19911;-85
2023/11/15 09:43:14;;;;;;;;;;;;;;;10.98;100.00;99836.22;6274774;22;19911;-90
2023/11/15 09:45:41;;;;;;;;;;;;;;;10.05;100.00;99838.28;6249629;22;20349;-88
2023/11/15 09:48:09;;;;;;;;;;;;;;;9.21;100.00;99845.88;6249250;22;19919;-90
2023/11/15 09:50:34;;;;;;;;;;;;;;;7.67;100.00;99843.00;6275060;22;20350;-88
2023/11/15 09:53:05;;;;;;;;;;;;;;;6.90;100.00;99838.13;6274320;22;19915;-88
2023/11/15 09:55:30;;;;;;;;;;;;;;;6.53;100.00;99844.38;6248808;22;19922;-88
2023/11/15 09:57:55;;;;;;;;;;;;;;;6.25;100.00;99839.78;6273960;22;20247;-88
2023/11/15 10:00:21;;;;;;;;;;;;;;;6.13;100.00;99850.59;6275092;22;19968;-88
2023/11/15 10:02:51;;;;;;;;;;;;;;;6.52;100.00;99855.78;6274285;22;19954;-88
2023/11/15 10:05:26;;;;;;;;;;;;;;;6.76;100.00;99872.72;6274193;22;19911;-88
2023/11/15 10:07:52;;;;;;;;;;;;;;;6.89;100.00;99874.16;6247920;22;20243;-89
2023/11/15 10:10:21;;;;;;;;;;;;;;;6.93;100.00;99876.72;6275534;22;19920;-88
2023/11/15 10:12:50;;;;;;;;;;;;;;;6.95;100.00;99874.88;6273840;22;19918;-88
2023/11/15 10:15:29;;;;;;;;;;;;;;;7.00;100.00;99871.22;6277337;22;19995;-89
2023/11/15 10:18:00;;;;;;;;;;;;;;;6.99;100.00;99874.78;6248401;22;19917;-90
2023/11/15 10:20:25;;;;;;;;;;;;;;;7.01;100.00;99872.94;6277205;22;19911;-90
2023/11/15 10:22:52;;;;;;;;;;;;;;;7.08;100.00;99864.00;6250144;22;19941;-91
2023/11/15 10:25:18;;;;;;;;;;;;;;;7.11;100.00;99867.44;6276847;22;19987;-88
2023/11/15 10:27:44;;;;;;;;;;;;;;;7.08;100.00;99864.00;6276892;22;20276;-88
2023/11/15 10:30:13;;;;;;;;;;;;;;;7.11;100.00;99867.44;6249018;22;19991;-88
2023/11/15 10:32:47;;;;;;;;;;;;;;;7.14;100.00;99862.09;6276515;22;19915;-89
2023/11/15 10:35:33;;;;;;;;;;;;;;;7.13;100.00;99860.34;6275866;22;19990;-88
2023/11/15 10:37:58;;;;;;;;;;;;;;;7.15;100.00;99858.53;6249341;22;19907;-88
2023/11/15 10:40:29;;;;;;;;;;;;;;;7.16;100.00;99855.00;6276798;22;20242;-91
2023/11/15 10:42:55;;;;;;;;;;;;;;;7.17;100.00;99856.72;6275863;22;19922;-89
2023/11/15 10:45:24;;;;;;;;;;;;;;;7.20;100.00;99851.38;6277607;22;20270;-88
2023/11/15 10:47:54;;;;;;;;;;;;;;;7.14;100.00;99854.19;6277341;22;19918;-89
2023/11/15 10:50:21;;;;;;;;;;;;;;;7.12;100.00;99856.00;6249384;22;19973;-89
2023/11/15 10:52:47;;;;;;;;;;;;;;;7.11;100.00;99857.75;6277730;22;19980;-91
2023/11/15 10:55:13;;;;;;;;;;;;;;;7.16;100.00;99855.00;6250191;22;19915;-90
2023/11/15 10:57:40;;;;;;;;;;;;;;;7.13;100.00;99855.06;6249508;22;19945;-93
2023/11/15 11:00:09;;;;;;;;;;;;;;;7.12;100.00;99856.00;6274291;22;19969;-91
2023/11/15 11:02:38;;;;;;;;;;;;;;;7.16;100.00;99849.72;6276608;22;20334;-88
2023/11/15 11:05:04;;;;;;;;;;;;;;;7.15;100.00;99846.22;6249581;22;19964;-89
2023/11/15 11:07:38;;;;;;;;;;;;;;;7.12;100.00;99848.94;6249427;22;19918;-88
2023/11/15 11:10:03;;;;;;;;;;;;;;;7.15;100.00;99843.59;6249875;22;19915;-90
2023/11/15 11:12:30;;;;;;;;;;;;;;;7.17;100.00;99841.78;6250033;22;20288;-89
2023/11/15 11:15:15;;;;;;;;;;;;;;;7.14;100.00;99835.75;6275301;22;19915;-90
2023/11/15 11:17:45;;;;;;;;;;;;;;;7.17;100.00;99833.03;6249801;22;20303;-90
2023/11/15 11:20:30;;;;;;;;;;;;;;;7.15;100.00;99838.34;6248975;22;20299;-89
2023/11/15 11:23:10;;;;;;;;;;;;;;;7.21;100.00;99837.28;6275814;22;19911;-90
2023/11/15 11:25:38;;;;;;;;;;;;;;;7.19;100.00;99834.69;6275670;22;19917;-89
2023/11/15 11:28:05;;;;;;;;;;;;;;;7.16;100.00;99826.84;6248024;22;19917;-88
2023/11/15 11:30:31;;;;;;;;;;;;;;;7.16;100.00;99818.94;6276613;22;20333;-89
2023/11/15 11:33:10;;;;;;;;;;;;;;;7.17;100.00;99820.69;6276459;22;19960;-90
2023/11/15 11:35:36;;;;;;;;;;;;;;;7.19;100.00;99818.03;6249558;22;19990;-89
2023/11/15 11:38:03;;;;;;;;;;;;;;;7.23;100.00;99819.66;6247886;22;19919;-87
2023/11/15 11:40:32;;;;;;;;;;;;;;;7.20;100.00;99825.03;6276272;22;19911;-96
2023/11/15 11:43:31;;;;;;;;;;;;;;;7.24;100.00;99821.38;6248401;22;19919;-95
2023/11/15 11:45:57;;;;;;;;;;;;;;;7.18;100.00;99817.16;6246871;22;19960;-83
2023/11/15 11:48:26;;;;;;;;;;;;;;;7.21;100.00;99830.25;6276277;22;19946;-91
2023/11/15 11:50:59;;;;;;;;;;;;;;;7.17;100.00;99812.78;6277309;22;20246;-89
2023/11/15 11:53:25;;;;;;;;;;;;;;;7.19;100.00;99828.56;6250470;22;19950;-87
2023/11/15 11:55:54;;;;;;;;;;;;;;;7.23;100.00;99819.66;6276807;22;20234;-90
2023/11/15 11:58:20;;;;;;;;;;;;;;;7.20;100.00;99817.13;6274024;22;19916;-87
2023/11/15 12:00:45;;;;;;;;;;;;;;;7.17;100.00;99815.44;6276010;22;20625;-87
2023/11/15 12:03:20;;;;;;;;;;;;;;;;;;;;;
2023/11/15 12:05:47;;;;;;;;;;;;;;;7.19;100.00;99816.25;6277363;22;19990;-90
2023/11/15 12:08:14;;;;;;;;;;;;;;;7.16;100.00;99820.75;6250164;22;19911;-91
2023/11/15 12:10:40;;;;;;;;;;;;;;;7.14;100.00;99819.94;6248893;22;19915;-89
2023/11/15 12:13:06;;;;;;;;;;;;;;;7.21;100.00;99826.72;6275241;22;20231;-92
2023/11/15 12:15:35;;;;;;;;;;;;;;;7.18;100.00;99822.44;6249169;22;19919;-89
2023/11/15 12:18:00;;;;;;;;;;;;;;;7.18;100.00;99824.19;6275614;22;19919;-89
2023/11/15 12:20:27;;;;;;;;;;;;;;;7.13;100.00;99821.69;6249251;22;19918;-88
2023/11/15 12:23:08;;;;;;;;;;;;;;;7.22;100.00;99828.47;6275144;22;19911;-88
2023/11/15 12:25:48;;;;;;;;;;;;;;;7.17;100.00;99827.75;6248295;22;22164;-88
2023/11/15 12:28:14;;;;;;;;;;;;;;;7.15;100.00;99829.53;6247306;22;19915;-88
2023/11/15 12:30:40;;;;;;;;;;;;;;;7.16;100.00;99836.53;6275729;22;19918;-89
2023/11/15 12:33:05;;;;;;;;;;;;;;;7.14;100.00;99841.88;6275749;22;19946;-84
2023/11/15 12:35:33;;;;;;;;;;;;;;;7.16;100.00;99845.31;6275259;22;19923;-88
2023/11/15 12:38:05;;;;;;;;;;;;;;;7.16;100.00;99842.66;6249078;22;20299;-90
2023/11/15 12:40:31;;;;;;;;;;;;;;;7.13;100.00;99849.81;6276384;22;19915;-88
2023/11/15 12:43:11;;;;;;;;;;;;;;;7.14;100.00;99846.28;6274180;22;20029;-86
2023/11/15 12:45:36;;;;;;;;;;;;;;;7.09;100.00;99852.53;6275086;22;19918;-88
2023/11/15 12:48:09;;;;;;;;;;;;;;;7.10;100.00;99853.41;6275192;22;19946;-87
2023/11/15 12:50:36;;;;;;;;;;;;;;;7.11;100.00;99843.72;6276139;22;19917;-87
2023/11/15 12:53:08;;;;;;;;;;;;;;;7.12;100.00;99848.94;6275075;22;19938;-87
2023/11/15 12:55:53;;;;;;;;;;;;;;;7.13;100.00;99845.38;6275430;22;19994;-87
2023/11/15 12:58:21;;;;;;;;;;;;;;;7.11;100.00;99841.09;6273505;22;19956;-87
2023/11/15 13:00:59;;;;;;;;;;;;;;;7.13;100.00;99848.03;6275550;22;20323;-87
2023/11/15 13:03:33;;;;;;;;;;;;;;;7.12;100.00;99842.81;6249262;22;19911;-87
2023/11/15 13:06:17;;;;;;;;;;;;;;;7.09;100.00;99842.00;6274875;22;20220;-88
2023/11/15 13:08:43;;;;;;;;;;;;;;;7.12;100.00;99856.00;6275261;22;19918;-91
2023/11/15 13:11:10;;;;;;;;;;;;;;;7.15;100.00;99848.88;6276128;22;19912;-89
2023/11/15 13:13:39;;;;;;;;;;;;;;;7.09;100.00;99855.16;6247089;22;19942;-90
2023/11/15 13:16:05;;;;;;;;;;;;;;;7.09;100.00;99855.16;6276560;22;19912;-91
2023/11/15 13:18:30;;;;;;;;;;;;;;;7.11;100.00;99857.75;6276182;22;20006;-91
2023/11/15 13:20:58;;;;;;;;;;;;;;;7.13;100.00;99865.63;6276346;22;20279;-89
2023/11/15 13:23:24;;;;;;;;;;;;;;;7.16;100.00;99862.91;6249553;22;19922;-86
2023/11/15 13:25:50;;;;;;;;;;;;;;;7.13;100.00;99865.63;6275861;22;19911;-86
2023/11/15 13:28:15;;;;;;;;;;;;;;;7.11;100.00;99873.56;6274353;22;19949;-88
2023/11/15 13:30:42;;;;;;;;;;;;;;;7.07;100.00;99870.16;6276312;22;19912;-90
2023/11/15 13:33:08;;;;;;;;;;;;;;;7.11;100.00;99868.28;6248851;22;19922;-91
2023/11/15 13:35:33;;;;;;;;;;;;;;;7.15;100.00;99874.34;6276004;22;19911;-90
2023/11/15 13:37:59;;;;;;;;;;;;;;;7.16;100.00;99866.38;6250800;22;19918;-89
2023/11/15 13:40:25;;;;;;;;;;;;;;;7.13;100.00;99882.28;6276106;22;19918;-92
2023/11/15 13:42:51;;;;;;;;;;;;;;;7.12;100.00;99874.44;6247315;22;19911;-88
2023/11/15 13:45:17;;;;;;;;;;;;;;;7.11;100.00;99868.28;6275266;22;20300;-88
2023/11/15 13:47:43;;;;;;;;;;;;;;;7.10;100.00;99874.50;6276077;22;19911;-87
2023/11/15 13:50:09;;;;;;;;;;;;;;;7.11;100.00;99883.25;6277708;22;20009;-92
2023/11/15 13:52:34;;;;;;;;;;;;;;;7.07;100.00;99877.22;6276381;22;19919;-88
2023/11/15 13:54:59;;;;;;;;;;;;;;;7.10;100.00;99882.41;6250133;22;19911;-89
2023/11/15 13:57:25;;;;;;;;;;;;;;;7.10;100.00;99882.41;6277831;22;19993;-90
2023/11/15 13:59:50;;;;;;;;;;;;;;;7.08;100.00;99879.81;6248359;22;19993;-85
2023/11/15 14:02:15;;;;;;;;;;;;;;;7.11;100.00;99877.97;6277274;22;20414;-89
2023/11/15 14:04:41;;;;;;;;;;;;;;;7.04;100.00;99883.41;6277094;22;20312;-91
2023/11/15 14:07:06;;;;;;;;;;;;;;;7.08;100.00;99879.81;6250818;22;19915;-88
2023/11/15 14:09:32;;;;;;;;;;;;;;;7.07;100.00;99878.06;6277403;22;19915;-89
2023/11/15 14:11:57;;;;;;;;;;;;;;;7.06;100.00;99878.97;6277576;22;19999;-87
2023/11/15 14:14:24;;;;;;;;;;;;;;;7.08;100.00;99885.06;6276099;22;19911;-86
2023/11/15 14:16:49;;;;;;;;;;;;;;;7.12;100.00;99891.13;6250409;22;19922;-87
2023/11/15 14:19:15;;;;;;;;;;;;;;;7.14;100.00;99896.34;6250240;22;19998;-91
2023/11/15 14:21:42;;;;;;;;;;;;;;;7.13;100.00;99923.59;6251100;22;19911;-86
2023/11/15 14:24:09;;;;;;;;;;;;;;;7.21;100.00;99913.69;6250094;22;20335;-87
2023/11/15 14:26:34;;;;;;;;;;;;;;;7.11;100.00;99899.06;6250237;22;19918;-90
2023/11/15 14:28:59;;;;;;;;;;;;;;;7.12;100.00;99891.13;6249262;22;19915;-86
2023/11/15 14:31:25;;;;;;;;;;;;;;;7.03;100.00;99905.38;6277331;22;19911;-88
2023/11/15 14:33:51;;;;;;;;;;;;;;;6.97;100.00;99912.59;6277506;22;20326;-84
2023/11/15 14:36:17;;;;;;;;;;;;;;;7.00;100.00;99908.09;6277449;22;19957;-89
2023/11/15 14:38:42;;;;;;;;;;;;;;;7.01;100.00;99904.56;6250723;22;19915;-86
2023/11/15 14:41:09;;;;;;;;;;;;;;;7.01;100.00;99904.56;6277276;22;19919;-90
2023/11/15 14:43:35;;;;;;;;;;;;;;;7.02;100.00;99906.31;6248026;22;19918;-88
2023/11/15 14:46:01;;;;;;;;;;;;;;;7.01;100.00;99916.88;6276612;22;20235;-87
2023/11/15 14:48:26;;;;;;;;;;;;;;;6.98;100.00;99917.81;6278220;22;19988;-84
2023/11/15 14:50:52;;;;;;;;;;;;;;;7.00;100.00;99917.78;6250287;22;20345;-86
2023/11/15 14:55:49;;;;;;;;;;;;;;;7.00;100.00;99913.38;6286813;22;19965;-90
2023/11/15 14:58:14;;;;;;;;;;;;;;;6.98;100.00;99912.56;6275968;22;20235;-90
2023/11/15 15:00:41;;;;;;;;;;;;;;;7.02;100.00;99922.13;6250231;22;19919;-92
2023/11/15 15:03:10;;;;;;;;;;;;;;;6.98;100.00;99916.97;6277324;22;19912;-91
2023/11/15 15:05:35;;;;;;;;;;;;;;;6.98;100.00;99914.34;6276995;22;19919;-90
2023/11/15 15:08:01;;;;;;;;;;;;;;;6.97;100.00;99912.59;6250613;22;19911;-90
2023/11/15 15:10:26;;;;;;;;;;;;;;;6.99;100.00;99911.66;6276949;22;19911;-91
2023/11/15 15:12:51;;;;;;;;;;;;;;;6.98;100.00;99912.56;6274928;22;19998;-90
2023/11/15 15:15:17;;;;;;;;;;;;;;;6.94;100.00;99908.28;6276729;22;20330;-92
2023/11/15 15:17:46;;;;;;;;;;;;;;;6.96;100.00;99909.09;6275697;22;19934;-91
2023/11/15 15:20:14;;;;;;;;;;;;;;;6.98;100.00;99909.06;6275996;22;19989;-91
2023/11/15 15:22:40;;;;;;;;;;;;;;;6.95;100.00;99910.00;6249550;22;19911;-91
2023/11/15 15:25:08;;;;;;;;;;;;;;;6.92;100.00;99899.53;6250364;22;19911;-91
2023/11/15 15:27:34;;;;;;;;;;;;;;;6.92;100.00;99910.06;6249498;22;19915;-91
2023/11/15 15:29:59;;;;;;;;;;;;;;;6.92;100.00;99907.44;6274881;22;20216;-91
2023/11/15 15:32:25;;;;;;;;;;;;;;;6.88;100.00;99909.28;6249155;22;19918;-93
2023/11/15 15:34:51;;;;;;;;;;;;;;;6.87;100.00;99912.81;6276621;22;19934;-92
2023/11/15 15:37:16;;;;;;;;;;;;;;;6.89;100.00;99905.75;6249738;22;20235;-91
2023/11/15 15:39:42;;;;;;;;;;;;;;;6.87;100.00;99904.06;6249682;22;20002;-91
2023/11/15 15:42:08;;;;;;;;;;;;;;;6.89;100.00;99904.88;6276278;22;19998;-91
2023/11/15 15:44:33;;;;;;;;;;;;;;;6.95;100.00;99906.50;6275929;22;19929;-90
2023/11/15 15:46:58;;;;;;;;;;;;;;;6.88;100.00;99900.53;6250363;22;19911;-90
2023/11/15 15:49:23;;;;;;;;;;;;;;;6.88;100.00;99911.06;6277450;22;19911;-91
2023/11/15 15:51:49;;;;;;;;;;;;;;;6.94;100.00;99910.91;6276240;22;20242;-90
2023/11/15 15:54:14;;;;;;;;;;;;;;;6.88;100.00;99916.34;6248737;22;19922;-90
2023/11/15 15:56:41;;;;;;;;;;;;;;;6.87;100.00;99920.72;6249243;22;20354;-91
2023/11/15 15:59:06;;;;;;;;;;;;;;;6.89;100.00;99923.31;6247925;22;20243;-94
2023/11/15 16:01:31;;;;;;;;;;;;;;;6.90;100.00;99922.44;6248922;22;20319;-91
2023/11/15 16:03:57;;;;;;;;;;;;;;;6.88;100.00;99926.88;6248539;22;20310;-91
2023/11/15 16:06:22;;;;;;;;;;;;;;;6.84;100.00;99922.56;6276272;22;19957;-91
2023/11/15 16:08:47;;;;;;;;;;;;;;;6.84;100.00;99928.69;6275097;22;19915;-90
2023/11/15 16:11:13;;;;;;;;;;;;;;;6.85;100.00;99934.84;6275760;22;19993;-92
2023/11/15 16:13:38;;;;;;;;;;;;;;;6.85;100.00;99930.44;6247066;22;20324;-91
2023/11/15 16:16:03;;;;;;;;;;;;;;;6.86;100.00;99936.56;6275843;22;19915;-91
2023/11/15 16:18:29;;;;;;;;;;;;;;;6.88;100.00;99940.91;6249390;22;19946;-86
2023/11/15 16:20:55;;;;;;;;;;;;;;;6.87;100.00;99938.31;6272033;22;19919;-92
2023/11/15 16:23:20;;;;;;;;;;;;;;;6.85;100.00;99934.84;6275629;22;19922;-92
2023/11/15 16:25:45;;;;;;;;;;;;;;;6.81;100.00;99934.06;6277714;22;20239;-91
2023/11/15 16:28:12;;;;;;;;;;;;;;;6.86;100.00;99942.72;6247395;22;19915;-92
2023/11/15 16:30:38;;;;;;;;;;;;;;;6.86;100.00;99941.84;6276089;22;20006;-91
2023/11/15 16:33:04;;;;;;;;;;;;;;;6.87;100.00;99943.56;6275949;22;20319;-91
2023/11/15 16:35:29;;;;;;;;;;;;;;;6.84;100.00;99947.13;6248765;22;19915;-91
2023/11/15 16:37:55;;;;;;;;;;;;;;;6.83;100.00;99941.91;6275976;22;19907;-91
2023/11/15 16:40:20;;;;;;;;;;;;;;;6.85;100.00;99940.13;6248681;22;19911;-91
2023/11/15 16:42:45;;;;;;;;;;;;;;;6.82;100.00;99946.31;6276392;22;20347;-91
2023/11/15 16:45:13;;;;;;;;;;;;;;;6.86;100.00;99947.09;6275350;22;20199;-92
2023/11/15 16:47:38;;;;;;;;;;;;;;;6.86;100.00;99952.38;6276062;22;20334;-91
2023/11/15 16:50:04;;;;;;;;;;;;;;;6.86;100.00;99942.72;6276080;22;19991;-91
2023/11/15 16:52:29;;;;;;;;;;;;;;;6.87;100.00;99960.22;6249767;22;19911;-90
2023/11/15 16:54:55;;;;;;;;;;;;;;;6.88;100.00;99958.50;6276148;22;19911;-92
2023/11/15 16:57:20;;;;;;;;;;;;;;;6.87;100.00;99954.13;6276628;22;19918;-91
2023/11/15 16:59:46;;;;;;;;;;;;;;;6.85;100.00;99961.19;6274570;22;20323;-91
2023/11/15 17:02:12;;;;;;;;;;;;;;;6.85;100.00;99955.94;6245377;23;19926;-91
2023/11/15 17:04:37;;;;;;;;;;;;;;;6.83;100.00;99962.97;6245451;23;20247;-90
2023/11/15 17:07:02;;;;;;;;;;;;;;;6.86;100.00;99958.53;6244837;23;19912;-91
2023/11/15 17:09:28;;;;;;;;;;;;;;;6.84;100.00;99956.81;6245138;23;19954;-91
2023/11/15 17:11:53;;;;;;;;;;;;;;;6.84;100.00;99949.78;6245430;23;19911;-93
2023/11/15 17:14:20;;;;;;;;;;;;;;;6.81;100.00;99956.91;6242864;23;19922;-87
2023/11/15 17:16:45;;;;;;;;;;;;;;;6.86;100.00;99962.91;6245765;23;19974;-88
2023/11/15 17:19:12;;;;;;;;;;;;;;;6.81;100.00;99967.44;6244681;23;20323;-92
2023/11/15 17:21:43;;;;;;;;;;;;;;;6.82;100.00;99972.66;6245677;23;20397;-91
2023/11/15 17:24:08;;;;;;;;;;;;;;;6.85;100.00;99974.38;6248456;23;19916;-91
2023/11/15 17:26:34;;;;;;;;;;;;;;;6.81;100.00;99970.94;6246885;23;19946;-90
2023/11/15 17:28:59;;;;;;;;;;;;;;;6.79;100.00;99982.41;6221211;23;19919;-90
2023/11/15 17:31:25;;;;;;;;;;;;;;;6.78;100.00;99975.41;6245713;23;20339;-91
2023/11/15 17:33:56;;;;;;;;;;;;;;;6.77;100.00;99979.81;6220572;23;19916;-91
2023/11/15 17:36:24;;;;;;;;;;;;;;;6.79;100.00;99977.16;6247765;23;19923;-84
2023/11/15 17:38:50;;;;;;;;;;;;;;;6.81;100.00;99985.88;6247684;23;19990;-90
2023/11/15 17:41:15;;;;;;;;;;;;;;;6.81;100.00;99977.97;6246901;23;20295;-91
2023/11/15 17:43:41;;;;;;;;;;;;;;;6.80;100.00;99989.41;6246293;23;19915;-88
2023/11/15 17:46:09;;;;;;;;;;;;;;;6.76;100.00;99996.50;6247736;23;20330;-90
2023/11/15 17:48:36;;;;;;;;;;;;;;;6.83;100.00;99997.22;6247610;23;19916;-92
2023/11/15 17:51:03;;;;;;;;;;;;;;;6.80;100.00;99990.28;6246888;23;20001;-92
2023/11/15 17:53:28;;;;;;;;;;;;;;;6.77;100.00;99989.50;6247959;23;19918;-91
2023/11/15 17:55:53;;;;;;;;;;;;;;;6.78;100.00;99983.31;6247791;23;19986;-88
2023/11/15 17:58:19;;;;;;;;;;;;;;;6.80;100.00;99984.16;6245556;23;19907;-89
2023/11/15 18:00:46;;;;;;;;;;;;;;;6.78;100.00;99991.19;6259528;22;19982;-94
2023/11/15 18:03:11;;;;;;;;;;;;;;;6.81;100.00;99985.88;6250688;22;19911;-90
2023/11/15 18:05:37;;;;;;;;;;;;;;;6.81;100.00;99972.69;6281444;22;20272;-90
2023/11/15 18:08:03;;;;;;;;;;;;;;;6.80;100.00;99966.56;6251083;22;19926;-91
2023/11/15 18:10:29;;;;;;;;;;;;;;;6.84;100.00;99977.88;6278106;22;20231;-91
2023/11/15 18:12:54;;;;;;;;;;;;;;;6.80;100.00;99982.38;6276549;22;19990;-93
2023/11/15 18:15:20;;;;;;;;;;;;;;;6.82;100.00;99984.97;6278541;22;19950;-92
2023/11/15 18:20:59;;;;;;;;;;;;;;;6.83;100.00;99987.56;6250726;22;19911;-90
2023/11/15 18:23:24;;;;;;;;;;;;;;;6.81;100.00;99985.88;6250649;22;20298;-93
2023/11/15 18:25:50;;;;;;;;;;;;;;;6.85;100.00;99979.63;6277402;22;19918;-93
2023/11/15 18:28:15;;;;;;;;;;;;;;;6.86;100.00;99987.50;6248989;22;19950;-90
2023/11/15 18:30:44;;;;;;;;;;;;;;;6.83;100.00;99986.69;6277805;22;19989;-92
2023/11/15 18:33:17;;;;;;;;;;;;;;;6.81;100.00;99986.75;6277445;22;19911;-93
2023/11/15 18:35:42;;;;;;;;;;;;;;;6.84;100.00;99984.00;6250943;22;19911;-93
2023/11/15 18:38:08;;;;;;;;;;;;;;;6.81;100.00;99985.88;6250734;22;19942;-87
2023/11/15 18:40:34;;;;;;;;;;;;;;;6.89;100.00;99983.91;6277111;22;19911;-91
2023/11/15 18:42:59;;;;;;;;;;;;;;;6.87;100.00;99980.44;6275312;22;19990;-88
2023/11/15 18:45:24;;;;;;;;;;;;;;;6.80;100.00;99982.38;6276974;22;19943;-87
2023/11/15 18:47:50;;;;;;;;;;;;;;;6.83;100.00;99981.41;6249827;22;20384;-90
2023/11/15 18:50:15;;;;;;;;;;;;;;;6.85;100.00;99980.50;6250263;22;19911;-91
2023/11/15 18:52:42;;;;;;;;;;;;;;;6.82;100.00;99985.81;6249761;22;19911;-90
2023/11/15 18:55:12;;;;;;;;;;;;;;;6.79;100.00;99990.31;6249896;22;19929;-88
2023/11/15 18:57:41;;;;;;;;;;;;;;;6.83;100.00;99998.09;6276806;22;19946;-88
2023/11/15 19:00:13;;;;;;;;;;;;;;;6.84;100.00;99997.19;6275096;22;19992;-87
2023/11/15 19:02:41;;;;;;;;;;;;;;;6.82;100.00;99998.16;6277717;22;20323;-92
2023/11/15 19:05:06;;;;;;;;;;;;;;;6.81;100.00;99999.91;6251672;22;19911;-88
2023/11/15 19:07:32;;;;;;;;;;;;;;;6.77;100.00;99989.50;6277227;22;19915;-88
2023/11/15 19:09:57;;;;;;;;;;;;;;;6.85;100.00;99993.66;6276797;22;20381;-87
2023/11/15 19:12:22;;;;;;;;;;;;;;;6.82;100.00;99998.16;6250860;22;19912;-88
2023/11/15 19:14:48;;;;;;;;;;;;;;;6.82;100.00;100004.25;6274968;22;20382;-88
2023/11/15 19:17:16;;;;;;;;;;;;;;;6.78;100.00;100007.00;6276707;22;19911;-89
2023/11/15 19:19:41;;;;;;;;;;;;;;;6.77;100.00;100000.03;6250229;22;20319;-90
2023/11/15 19:22:06;;;;;;;;;;;;;;;6.78;100.00;100004.38;6277360;22;19918;-88
2023/11/15 19:24:32;;;;;;;;;;;;;;;6.79;100.00;100006.13;6276473;22;19947;-88
2023/11/15 19:26:58;;;;;;;;;;;;;;;6.73;100.00;100001.84;6249766;22;19915;-89
2023/11/15 19:29:23;;;;;;;;;;;;;;;6.76;100.00;100011.44;6275238;22;19957;-89
2023/11/15 19:31:48;;;;;;;;;;;;;;;6.78;100.00;100007.00;6249540;22;19915;-91